Terminal Aerodrome Forecast
Issued by NWS Shreveport, LA

Home | Current Version | Previous Version | Text Only | Print | Product List | Glossary On
Versions: 1 2 3 4 5 6 7 8 9 10 11 12 13 14 15 16 17 18 19
795
FTUS44 KSHV 141722
TAFLFK
TAF
KLFK 141722Z 1418/1518 18010KT P6SM SCT025 BKN045
      TEMPO 1418/1420 BKN030
     FM150000 15007KT P6SM BKN050
      TEMPO 1500/1504 BKN010
     FM150400 14007KT P6SM OVC010
     FM150600 14006KT 5SM BR OVC004
     FM151200 17007KT 3SM BR VCSH OVC004
      TEMPO 1514/1518 27010KT 3SM -TSRA BR OVC010CB=

USA.gov is the U.S. government's official web portal to all federal, state and local government web resources and services.